Time;durP1;ratioP1;P1;durP2;ratioP2;P2;SDS_P1;SDS_P2;PMS_P1;PMS_P2;Temp;Humidity;BMP_temperature;BMP_pressure;BME280_temperature;BME280_humidity;BME280_pressure;Samples;Min_cycle;Max_cycle;Signal;HPM_P1;HPM_P2
2022/08/12 00:44:45;;;;;;;;;;;12.30;99.90;;;;;;5054361;28;19913;-76
2022/08/12 00:47:11;;;;;;;;;;;12.20;99.90;;;;;;5054042;28;19940;-76
2022/08/12 00:49:38;;;;;;;;;;;12.20;99.90;;;;;;5055108;28;19915;-78
2022/08/12 00:52:05;;;;;;;;;;;12.30;99.90;;;;;;5053371;28;19917;-77
2022/08/12 00:54:47;;;;;;;;;;;12.20;99.90;;;;;;5054282;28;20353;-76
2022/08/12 00:57:14;;;;;;;;;;;12.10;99.90;;;;;;5055110;28;19915;-76
2022/08/12 00:59:47;;;;;;;;;;;12.10;99.90;;;;;;5057283;28;19917;-78
2022/08/12 01:02:33;;;;;;;;;;;12.10;99.90;;;;;;5054023;28;19921;-76
2022/08/12 01:13:21;;;;;;;;;;;11.80;99.90;;;;;;5053655;28;19920;-76
2022/08/12 01:15:48;;;;;;;;;;;11.90;99.90;;;;;;5054712;28;19916;-76
2022/08/12 01:18:14;;;;;;;;;;;11.90;99.90;;;;;;5051630;28;19909;-76
2022/08/12 01:20:51;;;;;;;;;;;11.90;99.90;;;;;;5042947;28;20008;-76
2022/08/12 01:23:19;;;;;;;;;;;11.90;99.90;;;;;;5052311;28;19955;-76
2022/08/12 01:25:46;;;;;;;;;;;11.70;99.90;;;;;;5054749;28;19982;-76
2022/08/12 01:28:13;;;;;;;;;;;11.70;99.90;;;;;;5053983;28;19913;-76
2022/08/12 01:30:40;;;;;;;;;;;11.70;99.90;;;;;;5058252;28;19978;-76
2022/08/12 01:33:05;;;;;;;;;;;11.70;99.90;;;;;;5056210;28;20357;-76
2022/08/12 01:35:32;;;;;;;;;;;11.80;99.90;;;;;;5054169;28;19954;-76
2022/08/12 01:38:04;;;;;;;;;;;11.70;99.90;;;;;;5052939;28;20019;-76
2022/08/12 01:40:31;;;;;;;;;;;11.70;99.90;;;;;;5052978;28;19909;-76
2022/08/12 01:43:01;;;;;;;;;;;11.80;99.90;;;;;;5053342;28;19912;-76
2022/08/12 01:45:28;;;;;;;;;;;11.80;99.90;;;;;;5053427;28;19913;-76
2022/08/12 01:48:03;;;;;;;;;;;11.80;99.90;;;;;;5053969;28;19916;-76
2022/08/12 01:50:48;;;;;;;;;;;11.80;99.90;;;;;;5052515;28;20289;-77
2022/08/12 01:53:14;;;;;;;;;;;11.80;99.90;;;;;;5051180;28;20278;-76
2022/08/12 01:55:41;;;;;;;;;;;11.90;99.90;;;;;;5047572;28;20008;-77
2022/08/12 01:58:07;;;;;;;;;;;11.80;99.90;;;;;;5040225;28;19913;-77
2022/08/12 02:00:47;;;;;;;;;;;11.70;99.90;;;;;;5057907;28;20420;-76
2022/08/12 02:03:12;;;;;;;;;;;11.70;99.90;;;;;;5054887;28;20273;-76
2022/08/12 02:11:35;;;;;;;;;;;11.70;99.90;;;;;;5053132;28;19919;-76
2022/08/12 02:14:15;;;;;;;;;;;11.70;99.90;;;;;;5051537;28;20463;-79
2022/08/12 02:16:45;;;;;;;;;;;11.70;99.90;;;;;;5053479;28;19909;-76
2022/08/12 02:19:26;;;;;;;;;;;11.60;99.90;;;;;;5053473;28;20011;-76
2022/08/12 02:21:58;;;;;;;;;;;11.60;99.90;;;;;;5039799;28;19909;-76
2022/08/12 02:24:25;;;;;;;;;;;11.50;99.90;;;;;;5052790;28;19920;-76
2022/08/12 02:26:53;;;;;;;;;;;11.40;99.90;;;;;;5053373;28;19948;-76
2022/08/12 02:29:19;;;;;;;;;;;11.40;99.90;;;;;;5054544;28;19909;-76
2022/08/12 02:31:45;;;;;;;;;;;11.40;99.90;;;;;;5052705;28;19908;-76
2022/08/12 02:34:11;;;;;;;;;;;11.30;99.90;;;;;;5052389;28;19909;-76
2022/08/12 02:36:38;;;;;;;;;;;11.30;99.90;;;;;;5053102;28;19916;-76
2022/08/12 02:39:04;;;;;;;;;;;11.30;99.90;;;;;;5053104;28;20325;-79
2022/08/12 02:41:31;;;;;;;;;;;11.40;99.90;;;;;;5052597;28;19912;-77
2022/08/12 02:44:03;;;;;;;;;;;11.40;99.90;;;;;;5038859;28;20011;-76
2022/08/12 02:46:31;;;;;;;;;;;11.40;99.90;;;;;;5047116;28;20366;-76
2022/08/12 02:48:59;;;;;;;;;;;11.40;99.90;;;;;;5052677;28;19908;-76
2022/08/12 02:51:29;;;;;;;;;;;11.40;99.90;;;;;;5051559;28;20282;-76
2022/08/12 02:53:57;;;;;;;;;;;11.30;99.90;;;;;;5051948;28;20328;-76
2022/08/12 02:56:25;;;;;;;;;;;11.30;99.90;;;;;;5052721;28;20289;-76
2022/08/12 02:58:51;;;;;;;;;;;11.20;99.90;;;;;;5052323;28;19962;-76
2022/08/12 03:01:20;;;;;;;;;;;11.20;99.90;;;;;;5063944;28;19991;-76
2022/08/12 03:03:48;;;;;;;;;;;11.20;99.90;;;;;;5051438;28;20015;-75
2022/08/12 03:06:19;;;;;;;;;;;11.20;99.90;;;;;;5052361;28;19909;-76
2022/08/12 03:08:46;;;;;;;;;;;11.10;99.90;;;;;;5051924;28;19917;-77
2022/08/12 03:11:15;;;;;;;;;;;11.10;99.90;;;;;;5051764;28;19917;-76
2022/08/12 03:13:44;;;;;;;;;;;11.00;99.90;;;;;;5048942;28;20365;-79
2022/08/12 03:16:10;;;;;;;;;;;11.00;99.90;;;;;;5052250;28;19917;-76
2022/08/12 03:18:35;;;;;;;;;;;11.00;99.90;;;;;;5051942;28;19915;-76
2022/08/12 03:21:01;;;;;;;;;;;11.00;99.90;;;;;;5052355;28;19991;-76
2022/08/12 03:23:28;;;;;;;;;;;11.00;99.90;;;;;;5051066;28;19909;-76
2022/08/12 03:25:57;;;;;;;;;;;11.00;99.90;;;;;;5052278;28;20386;-76
2022/08/12 03:31:07;;;;;;;;;;;10.90;99.90;;;;;;5052229;28;19955;-76
2022/08/12 03:33:35;;;;;;;;;;;10.80;99.90;;;;;;5050700;28;19909;-78
2022/08/12 03:36:02;;;;;;;;;;;10.80;99.90;;;;;;5052187;28;19909;-76
2022/08/12 03:38:28;;;;;;;;;;;10.80;99.90;;;;;;5051875;28;19916;-76
2022/08/12 04:00:18;;;;;;;;;;;10.60;99.90;;;;;;5047211;28;19915;-76
2022/08/12 04:02:45;;;;;;;;;;;10.60;99.90;;;;;;5050955;28;19909;-76
2022/08/12 04:05:11;;;;;;;;;;;10.50;99.90;;;;;;5051602;28;19916;-77
2022/08/12 04:07:37;;;;;;;;;;;10.50;99.90;;;;;;5051487;28;20356;-76
2022/08/12 04:10:03;;;;;;;;;;;10.50;99.90;;;;;;5051497;28;19979;-76
2022/08/12 04:15:17;;;;;;;;;;;10.60;99.90;;;;;;5050957;28;19916;-76
2022/08/12 04:17:43;;;;;;;;;;;10.60;99.90;;;;;;5051432;28;20261;-76
2022/08/12 04:20:12;;;;;;;;;;;10.60;99.90;;;;;;5051561;28;19916;-76
2022/08/12 04:22:38;;;;;;;;;;;10.60;99.90;;;;;;5050574;28;19916;-76
2022/08/12 04:25:04;;;;;;;;;;;10.60;99.90;;;;;;5056914;28;19920;-76
2022/08/12 04:27:30;;;;;;;;;;;10.70;99.90;;;;;;5050187;28;20042;-76
2022/08/12 04:29:57;;;;;;;;;;;10.80;99.90;;;;;;5051022;28;19911;-76
2022/08/12 04:32:26;;;;;;;;;;;10.80;99.90;;;;;;5050988;28;20289;-77
2022/08/12 04:34:52;;;;;;;;;;;10.90;99.90;;;;;;5050890;28;19973;-76
2022/08/12 04:37:17;;;;;;;;;;;10.90;99.90;;;;;;5051097;28;19909;-76
2022/08/12 04:39:43;;;;;;;;;;;10.70;99.90;;;;;;5051204;28;20346;-77
2022/08/12 04:42:09;;;;;;;;;;;10.60;99.90;;;;;;5050962;28;19916;-77
2022/08/12 04:44:34;;;;;;;;;;;10.80;99.90;;;;;;5050531;28;19984;-76
2022/08/12 04:47:00;;;;;;;;;;;10.90;99.90;;;;;;5051053;28;19999;-76
2022/08/12 04:49:26;;;;;;;;;;;10.90;99.90;;;;;;5051106;28;20362;-76
2022/08/12 04:51:51;;;;;;;;;;;11.00;99.90;;;;;;5050970;28;19909;-77
2022/08/12 04:54:17;;;;;;;;;;;10.90;99.90;;;;;;5050414;28;19932;-78
2022/08/12 04:56:43;;;;;;;;;;;10.90;99.90;;;;;;5051174;28;19909;-76
2022/08/12 04:59:10;;;;;;;;;;;10.90;99.90;;;;;;5050786;28;19977;-76
2022/08/12 05:01:36;;;;;;;;;;;11.00;99.90;;;;;;5050722;28;19909;-76
2022/08/12 05:04:02;;;;;;;;;;;11.10;99.90;;;;;;5050445;28;20015;-76
2022/08/12 05:06:27;;;;;;;;;;;11.20;99.90;;;;;;5052675;28;19912;-78
2022/08/12 05:08:59;;;;;;;;;;;11.20;99.90;;;;;;5052526;28;19917;-76
2022/08/12 05:11:25;;;;;;;;;;;11.30;99.90;;;;;;5054083;28;19948;-76
2022/08/12 05:13:53;;;;;;;;;;;11.30;99.90;;;;;;5053425;28;19916;-76
2022/08/12 05:16:19;;;;;;;;;;;11.40;99.90;;;;;;5049874;28;19935;-76
2022/08/12 05:18:44;;;;;;;;;;;11.60;99.90;;;;;;5054624;28;19908;-76
2022/08/12 05:21:10;;;;;;;;;;;11.80;99.90;;;;;;5050438;28;19917;-77
2022/08/12 05:23:36;;;;;;;;;;;12.00;99.90;;;;;;5058955;28;20464;-78
2022/08/12 05:26:02;;;;;;;;;;;12.00;99.90;;;;;;5053984;28;19978;-79
2022/08/12 05:28:29;;;;;;;;;;;12.00;99.90;;;;;;5053575;28;20370;-76
2022/08/12 05:30:55;;;;;;;;;;;12.00;99.90;;;;;;5033063;28;19916;-77
2022/08/12 05:33:22;;;;;;;;;;;12.20;99.90;;;;;;5052967;28;20007;-77
2022/08/12 05:35:48;;;;;;;;;;;12.40;99.90;;;;;;5053892;28;19909;-76
2022/08/12 05:41:00;;;;;;;;;;;12.50;99.90;;;;;;5054317;28;19915;-75
2022/08/12 05:43:25;;;;;;;;;;;12.50;99.90;;;;;;5052410;28;20301;-75
2022/08/12 05:45:51;;;;;;;;;;;12.60;99.90;;;;;;5053584;28;19909;-76
2022/08/12 05:48:17;;;;;;;;;;;12.80;99.90;;;;;;5053522;28;19920;-76
2022/08/12 05:50:44;;;;;;;;;;;12.90;99.90;;;;;;5050032;28;19916;-76
2022/08/12 05:53:10;;;;;;;;;;;13.00;99.90;;;;;;5046384;28;20305;-75
2022/08/12 05:55:36;;;;;;;;;;;13.60;99.90;;;;;;5052888;28;19908;-80
2022/08/12 05:58:01;;;;;;;;;;;13.70;99.90;;;;;;5048093;28;19916;-76
2022/08/12 06:00:30;;;;;;;;;;;13.80;99.90;;;;;;5048664;28;19909;-77
2022/08/12 06:02:59;;;;;;;;;;;14.00;99.90;;;;;;5050056;28;19917;-76
2022/08/12 06:05:37;;;;;;;;;;;14.20;99.90;;;;;;5054697;28;19982;-76
2022/08/12 06:08:06;;;;;;;;;;;14.20;99.90;;;;;;5057859;28;19916;-77
2022/08/12 06:10:32;;;;;;;;;;;14.20;99.90;;;;;;5053194;28;19916;-74
2022/08/12 06:13:01;;;;;;;;;;;14.30;99.90;;;;;;5052612;28;19962;-75
2022/08/12 06:15:28;;;;;;;;;;;14.40;99.90;;;;;;5052080;28;19916;-75
2022/08/12 06:17:54;;;;;;;;;;;14.60;99.90;;;;;;5051867;28;19909;-75
2022/08/12 06:20:19;;;;;;;;;;;14.70;99.90;;;;;;5047651;28;19920;-75
2022/08/12 06:22:49;;;;;;;;;;;14.80;99.90;;;;;;5052161;28;20435;-78
2022/08/12 06:25:17;;;;;;;;;;;15.10;99.90;;;;;;5054350;28;20394;-75
2022/08/12 06:27:44;;;;;;;;;;;15.10;99.90;;;;;;5052340;28;19962;-75
2022/08/12 06:30:09;;;;;;;;;;;15.50;99.90;;;;;;5052025;28;20281;-77
2022/08/12 06:32:36;;;;;;;;;;;15.60;99.90;;;;;;5052379;28;19913;-75
2022/08/12 06:35:02;;;;;;;;;;;15.60;99.90;;;;;;5051704;28;19909;-77
2022/08/12 06:37:27;;;;;;;;;;;15.70;99.90;;;;;;5051071;28;19913;-79
2022/08/12 06:39:53;;;;;;;;;;;15.90;99.90;;;;;;5052269;28;19908;-75
2022/08/12 06:45:03;;;;;;;;;;;16.10;99.90;;;;;;5051497;28;19998;-76
2022/08/12 06:47:28;;;;;;;;;;;16.30;99.90;;;;;;5051996;28;19909;-76
2022/08/12 06:49:54;;;;;;;;;;;16.50;99.90;;;;;;5051906;28;19955;-77
2022/08/12 06:52:23;;;;;;;;;;;16.70;99.90;;;;;;5046886;28;19913;-75
2022/08/12 06:54:49;;;;;;;;;;;16.80;99.90;;;;;;5054683;28;19909;-78
2022/08/12 06:57:15;;;;;;;;;;;16.80;99.90;;;;;;5050288;28;19916;-76
2022/08/12 06:59:40;;;;;;;;;;;17.20;99.90;;;;;;5054744;28;19919;-75
2022/08/12 07:02:07;;;;;;;;;;;17.50;99.90;;;;;;5051763;28;19913;-77
2022/08/12 07:04:34;;;;;;;;;;;17.70;99.90;;;;;;5050882;28;19920;-76
2022/08/12 07:07:00;;;;;;;;;;;17.80;99.90;;;;;;5051826;28;19978;-75
2022/08/12 07:09:26;;;;;;;;;;;18.10;99.40;;;;;;5051162;28;19964;-75
2022/08/12 07:11:52;;;;;;;;;;;18.50;99.20;;;;;;5048235;28;19916;-75
2022/08/12 07:14:17;;;;;;;;;;;18.70;96.90;;;;;;5050975;28;19910;-75
2022/08/12 07:16:52;;;;;;;;;;;19.60;94.10;;;;;;5051725;28;20362;-75
2022/08/12 07:19:21;;;;;;;;;;;19.10;94.10;;;;;;5049681;28;19912;-76
2022/08/12 07:21:47;;;;;;;;;;;19.30;95.10;;;;;;5047342;28;19909;-77
2022/08/12 07:24:13;;;;;;;;;;;19.40;93.90;;;;;;5049673;28;19924;-75
2022/08/12 07:26:40;;;;;;;;;;;20.00;93.40;;;;;;5051256;28;19909;-78
2022/08/12 07:29:08;;;;;;;;;;;21.50;90.60;;;;;;5050472;28;19999;-76
2022/08/12 07:31:35;;;;;;;;;;;23.30;84.80;;;;;;5051447;28;19916;-76
2022/08/12 07:34:00;;;;;;;;;;;24.00;78.60;;;;;;5051251;28;20012;-76
2022/08/12 07:36:26;;;;;;;;;;;24.70;74.90;;;;;;5051200;28;19948;-76
2022/08/12 07:38:51;;;;;;;;;;;24.70;71.30;;;;;;5051142;28;19909;-77
2022/08/12 07:41:19;;;;;;;;;;;25.40;71.40;;;;;;5050304;28;19909;-80
2022/08/12 07:43:46;;;;;;;;;;;25.20;71.30;;;;;;5049818;28;19909;-77
2022/08/12 07:46:13;;;;;;;;;;;25.10;68.80;;;;;;5050073;28;19915;-77
2022/08/12 07:48:41;;;;;;;;;;;25.20;66.10;;;;;;5052011;28;19916;-80
2022/08/12 07:51:07;;;;;;;;;;;25.80;67.70;;;;;;5050106;28;20051;-77
2022/08/12 07:53:34;;;;;;;;;;;26.00;66.70;;;;;;5057543;28;20370;-77
2022/08/12 07:55:59;;;;;;;;;;;26.20;65.20;;;;;;5051835;28;19931;-81
2022/08/12 07:58:25;;;;;;;;;;;26.70;64.10;;;;;;5051586;28;20362;-76
2022/08/12 08:00:56;;;;;;;;;;;26.90;62.40;;;;;;5051204;28;19909;-77
2022/08/12 08:03:23;;;;;;;;;;;26.80;62.20;;;;;;5050577;28;19926;-80
2022/08/12 08:05:48;;;;;;;;;;;27.00;61.70;;;;;;5051087;28;19960;-77
2022/08/12 08:08:15;;;;;;;;;;;26.80;59.40;;;;;;5051018;28;19964;-77
2022/08/12 08:10:41;;;;;;;;;;;27.20;61.30;;;;;;5051131;28;20007;-77
2022/08/12 08:13:07;;;;;;;;;;;27.70;60.30;;;;;;5049858;28;19909;-76
2022/08/12 08:15:33;;;;;;;;;;;27.50;57.30;;;;;;5050907;28;20003;-76
2022/08/12 08:18:01;;;;;;;;;;;28.20;58.10;;;;;;5050932;28;19909;-78
2022/08/12 08:20:44;;;;;;;;;;;28.60;58.00;;;;;;5051052;28;19967;-76
2022/08/12 08:23:15;;;;;;;;;;;29.10;57.50;;;;;;5047096;28;19913;-76
2022/08/12 08:25:42;;;;;;;;;;;29.30;55.90;;;;;;5050848;28;19913;-76
2022/08/12 08:28:07;;;;;;;;;;;29.60;58.00;;;;;;5050684;28;19999;-76
2022/08/12 08:30:35;;;;;;;;;;;29.80;54.60;;;;;;5050610;28;20330;-76
2022/08/12 08:33:00;;;;;;;;;;;28.90;55.00;;;;;;5051123;28;20004;-75
2022/08/12 08:35:26;;;;;;;;;;;29.00;54.90;;;;;;5051030;28;20019;-79
2022/08/12 08:37:52;;;;;;;;;;;29.40;56.50;;;;;;5051532;28;19916;-77
2022/08/12 08:43:03;;;;;;;;;;;29.30;53.00;;;;;;5055070;28;20313;-77
2022/08/12 08:45:29;;;;;;;;;;;30.10;51.80;;;;;;5054573;28;19994;-77
2022/08/12 08:47:55;;;;;;;;;;;29.90;53.30;;;;;;5055277;28;19960;-79
2022/08/12 08:50:20;;;;;;;;;;;30.20;54.20;;;;;;5054646;28;19992;-77
2022/08/12 08:52:47;;;;;;;;;;;29.60;52.00;;;;;;5053818;28;20270;-77
2022/08/12 08:55:14;;;;;;;;;;;29.80;53.40;;;;;;5054349;28;19931;-77
2022/08/12 08:57:39;;;;;;;;;;;29.30;51.30;;;;;;5054651;28;19959;-77
2022/08/12 09:00:06;;;;;;;;;;;30.00;50.00;;;;;;5054419;28;19948;-77
2022/08/12 09:02:32;;;;;;;;;;;30.40;49.60;;;;;;5053690;28;19909;-77
2022/08/12 09:04:57;;;;;;;;;;;30.90;46.50;;;;;;5053966;28;20373;-78
2022/08/12 09:07:23;;;;;;;;;;;30.60;50.00;;;;;;5054513;28;19912;-77
2022/08/12 09:09:50;;;;;;;;;;;31.30;46.10;;;;;;5052313;28;19975;-77
2022/08/12 09:15:00;;;;;;;;;;;29.60;46.60;;;;;;5052353;28;20392;-77
2022/08/12 09:17:29;;;;;;;;;;;31.20;50.10;;;;;;5053666;28;20229;-79
2022/08/12 09:19:54;;;;;;;;;;;31.50;46.50;;;;;;5054251;28;19963;-77
2022/08/12 09:22:21;;;;;;;;;;;29.80;46.70;;;;;;5060217;28;19936;-77
2022/08/12 09:24:46;;;;;;;;;;;30.90;49.20;;;;;;5057317;28;19913;-77
2022/08/12 09:27:15;;;;;;;;;;;29.90;46.30;;;;;;5053967;28;19909;-77
2022/08/12 09:29:41;;;;;;;;;;;29.80;47.00;;;;;;5053605;28;19948;-75
2022/08/12 09:32:07;;;;;;;;;;;29.30;48.40;;;;;;5053683;28;20311;-74
2022/08/12 09:34:33;;;;;;;;;;;30.80;47.70;;;;;;5053188;28;20336;-75
2022/08/12 09:37:00;;;;;;;;;;;30.30;48.50;;;;;;5053230;28;19935;-75
2022/08/12 09:39:26;;;;;;;;;;;30.30;48.80;;;;;;5053538;28;19955;-75
2022/08/12 09:45:21;;;;;;;;;;;31.00;49.50;;;;;;5053856;28;19909;-75
2022/08/12 09:47:27;;;;;;;;;;;30.90;48.20;;;;;;5054571;28;20408;-74
2022/08/12 09:49:53;;;;;;;;;;;31.50;45.70;;;;;;5054179;28;20039;-74
2022/08/12 09:52:19;;;;;;;;;;;31.50;46.80;;;;;;5050515;28;19944;-73
2022/08/12 09:54:44;;;;;;;;;;;31.40;47.30;;;;;;5060028;28;19915;-76
2022/08/12 09:57:10;;;;;;;;;;;32.10;46.10;;;;;;5054871;28;19959;-74
2022/08/12 09:59:36;;;;;;;;;;;31.10;46.90;;;;;;5053796;28;20004;-74
2022/08/12 10:02:02;;;;;;;;;;;32.00;45.50;;;;;;5053768;28;20344;-73
2022/08/12 10:04:28;;;;;;;;;;;31.20;43.60;;;;;;5053347;28;19913;-73
2022/08/12 10:06:54;;;;;;;;;;;32.30;46.20;;;;;;5054045;28;19916;-73
2022/08/12 10:09:19;;;;;;;;;;;31.50;44.80;;;;;;5053746;28;19952;-74
2022/08/12 10:14:29;;;;;;;;;;;32.30;43.30;;;;;;5053154;28;19916;-74
2022/08/12 10:16:54;;;;;;;;;;;32.80;42.00;;;;;;5053056;28;19913;-74
2022/08/12 10:19:21;;;;;;;;;;;33.10;41.70;;;;;;5052980;28;19923;-74
2022/08/12 10:21:47;;;;;;;;;;;30.60;42.90;;;;;;5052007;28;19927;-75
2022/08/12 10:24:15;;;;;;;;;;;32.10;44.30;;;;;;5054031;28;19938;-74
2022/08/12 10:29:37;;;;;;;;;;;32.90;43.80;;;;;;5052844;28;19955;-75
2022/08/12 10:32:07;;;;;;;;;;;33.40;42.50;;;;;;5052380;28;19971;-76
2022/08/12 10:34:32;;;;;;;;;;;32.40;42.90;;;;;;5045606;28;20278;-75
2022/08/12 10:36:59;;;;;;;;;;;32.70;43.70;;;;;;5052768;28;19916;-75
2022/08/12 10:39:25;;;;;;;;;;;32.40;43.80;;;;;;5052553;28;19940;-75
2022/08/12 10:44:38;;;;;;;;;;;32.70;44.80;;;;;;5047165;28;19919;-75
2022/08/12 10:47:03;;;;;;;;;;;32.00;40.90;;;;;;5052637;28;19909;-76
2022/08/12 10:49:33;;;;;;;;;;;33.10;41.70;;;;;;5052573;28;19916;-74
2022/08/12 10:52:02;;;;;;;;;;;33.30;41.30;;;;;;5057735;28;19908;-73
2022/08/12 10:54:28;;;;;;;;;;;32.90;40.10;;;;;;5047325;28;19909;-74
2022/08/12 10:56:56;;;;;;;;;;;32.20;39.50;;;;;;5052545;28;19995;-73
2022/08/12 10:59:22;;;;;;;;;;;33.30;39.50;;;;;;5051928;28;19909;-73
2022/08/12 11:01:48;;;;;;;;;;;32.80;41.00;;;;;;5051820;28;20382;-74
2022/08/12 11:04:14;;;;;;;;;;;32.70;42.40;;;;;;5050023;28;20278;-74
2022/08/12 11:06:46;;;;;;;;;;;33.20;41.60;;;;;;5052288;28;20151;-74
2022/08/12 11:09:18;;;;;;;;;;;32.70;39.60;;;;;;5051884;28;19927;-73
2022/08/12 11:11:44;;;;;;;;;;;33.30;41.70;;;;;;5051624;28;19917;-74
2022/08/12 11:14:09;;;;;;;;;;;34.10;39.90;;;;;;5041598;28;20309;-73
2022/08/12 11:16:37;;;;;;;;;;;34.50;40.50;;;;;;5052049;28;19913;-73
2022/08/12 11:19:02;;;;;;;;;;;34.50;40.80;;;;;;5051858;28;19908;-74
2022/08/12 11:21:28;;;;;;;;;;;33.20;40.00;;;;;;5050959;28;20381;-74
2022/08/12 11:23:53;;;;;;;;;;;34.60;39.40;;;;;;5048379;28;19909;-74
2022/08/12 11:26:19;;;;;;;;;;;34.30;39.30;;;;;;5051606;28;19909;-73
2022/08/12 11:28:44;;;;;;;;;;;33.10;41.60;;;;;;5051639;28;19944;-74
2022/08/12 11:31:09;;;;;;;;;;;33.80;39.90;;;;;;5051487;28;19923;-73
2022/08/12 11:33:35;;;;;;;;;;;32.30;39.20;;;;;;5048954;28;19908;-74
2022/08/12 11:36:07;;;;;;;;;;;33.30;43.40;;;;;;5048025;28;20290;-73
2022/08/12 11:38:33;;;;;;;;;;;33.10;42.80;;;;;;5048622;28;19916;-75
2022/08/12 11:40:58;;;;;;;;;;;33.00;42.10;;;;;;5049014;28;19909;-74
2022/08/12 11:43:24;;;;;;;;;;;33.30;41.30;;;;;;5048347;28;19913;-74
2022/08/12 11:45:50;;;;;;;;;;;32.10;41.60;;;;;;5048931;28;19962;-74
2022/08/12 11:48:15;;;;;;;;;;;32.20;42.00;;;;;;5048755;28;19916;-74
2022/08/12 11:50:44;;;;;;;;;;;32.00;41.70;;;;;;5051379;28;19909;-74
2022/08/12 11:53:09;;;;;;;;;;;30.00;43.30;;;;;;5055004;28;19909;-74
2022/08/12 11:55:35;;;;;;;;;;;31.10;44.70;;;;;;5051946;28;19916;-74
2022/08/12 11:58:00;;;;;;;;;;;29.90;43.50;;;;;;5051943;28;20412;-73
2022/08/12 12:00:26;;;;;;;;;;;30.00;41.60;;;;;;5051487;28;19909;-73
2022/08/12 12:02:51;;;;;;;;;;;30.00;41.70;;;;;;5051464;28;19909;-74
2022/08/12 12:05:18;;;;;;;;;;;29.90;43.90;;;;;;5051167;28;19912;-73
2022/08/12 12:07:44;;;;;;;;;;;30.50;42.10;;;;;;5051577;28;19912;-73
2022/08/12 12:10:10;;;;;;;;;;;30.50;41.60;;;;;;5051677;28;20124;-73
2022/08/12 12:12:36;;;;;;;;;;;30.60;42.20;;;;;;5051339;28;20348;-73
2022/08/12 12:15:03;;;;;;;;;;;30.20;41.40;;;;;;5050661;28;19913;-73
2022/08/12 12:17:28;;;;;;;;;;;30.90;43.90;;;;;;5051666;28;20289;-72
2022/08/12 12:19:54;;;;;;;;;;;30.40;41.10;;;;;;5051879;28;20349;-73
2022/08/12 12:22:20;;;;;;;;;;;31.00;41.50;;;;;;5050646;28;19983;-72
2022/08/12 12:24:49;;;;;;;;;;;31.30;41.20;;;;;;5050450;28;19920;-73
2022/08/12 12:27:16;;;;;;;;;;;30.50;42.00;;;;;;5051387;28;19909;-73
2022/08/12 12:29:42;;;;;;;;;;;31.20;43.90;;;;;;5051154;28;19923;-75
2022/08/12 12:32:07;;;;;;;;;;;32.80;40.60;;;;;;5050823;28;19912;-74
2022/08/12 12:34:33;;;;;;;;;;;33.80;37.50;;;;;;5050612;28;20378;-72
2022/08/12 12:36:58;;;;;;;;;;;34.00;35.70;;;;;;5051230;28;19909;-73
2022/08/12 12:39:24;;;;;;;;;;;33.30;36.10;;;;;;5051293;28;19916;-72
2022/08/12 12:41:49;;;;;;;;;;;34.00;35.80;;;;;;5050813;28;19962;-74
2022/08/12 12:44:15;;;;;;;;;;;36.10;34.70;;;;;;5050559;28;19944;-74
2022/08/12 12:46:40;;;;;;;;;;;36.50;33.80;;;;;;5050780;28;20366;-74
2022/08/12 12:49:06;;;;;;;;;;;31.80;37.50;;;;;;5050603;28;19909;-74
2022/08/12 12:51:31;;;;;;;;;;;29.20;44.50;;;;;;5050049;28;19916;-73
2022/08/12 12:53:57;;;;;;;;;;;29.30;42.40;;;;;;5048680;28;19917;-73
2022/08/12 12:56:23;;;;;;;;;;;29.30;41.80;;;;;;5049143;28;19908;-73
2022/08/12 12:58:50;;;;;;;;;;;32.80;39.20;;;;;;5050572;28;19959;-73
2022/08/12 13:01:17;;;;;;;;;;;35.50;36.30;;;;;;5049914;28;20286;-73
2022/08/12 13:03:44;;;;;;;;;;;33.90;37.40;;;;;;5049656;28;19920;-72
2022/08/12 13:06:09;;;;;;;;;;;31.30;40.80;;;;;;5047025;28;19948;-73
2022/08/12 13:08:35;;;;;;;;;;;30.50;43.60;;;;;;5050393;28;19956;-72
2022/08/12 13:11:02;;;;;;;;;;;28.70;47.00;;;;;;5051095;28;19982;-72
2022/08/12 13:13:31;;;;;;;;;;;27.60;46.50;;;;;;5050353;28;19920;-73
2022/08/12 13:15:59;;;;;;;;;;;27.00;47.80;;;;;;5050813;28;19909;-73
2022/08/12 13:18:27;;;;;;;;;;;27.70;46.30;;;;;;5048813;28;20003;-73
2022/08/12 13:20:52;;;;;;;;;;;29.70;45.70;;;;;;5049774;28;19991;-73
2022/08/12 13:23:18;;;;;;;;;;;34.10;38.40;;;;;;5052904;28;19995;-73
2022/08/12 13:25:45;;;;;;;;;;;34.70;36.40;;;;;;5050496;28;19913;-73
2022/08/12 13:28:23;;;;;;;;;;;36.10;35.80;;;;;;5054070;28;19919;-74
2022/08/12 13:30:51;;;;;;;;;;;36.50;35.70;;;;;;5053935;28;19916;-74
2022/08/12 13:33:24;;;;;;;;;;;34.60;35.90;;;;;;5052792;28;19909;-73
2022/08/12 13:35:53;;;;;;;;;;;30.20;43.10;;;;;;5053958;28;19919;-74
2022/08/12 13:38:20;;;;;;;;;;;28.70;47.50;;;;;;5054491;28;19916;-73
2022/08/12 13:40:45;;;;;;;;;;;29.30;46.40;;;;;;5054562;28;19909;-74
2022/08/12 13:43:16;;;;;;;;;;;30.40;43.40;;;;;;5052929;28;20285;-73
2022/08/12 13:45:42;;;;;;;;;;;28.10;46.00;;;;;;5054006;28;19959;-73
2022/08/12 13:48:07;;;;;;;;;;;27.10;49.70;;;;;;5054123;28;20343;-73
2022/08/12 13:50:34;;;;;;;;;;;26.80;50.10;;;;;;5054196;28;19909;-73
2022/08/12 13:53:03;;;;;;;;;;;26.50;50.50;;;;;;5061655;28;20376;-73
2022/08/12 13:55:29;;;;;;;;;;;26.60;49.30;;;;;;5050537;28;19909;-74
2022/08/12 13:57:54;;;;;;;;;;;30.70;44.70;;;;;;5053946;28;20004;-73
2022/08/12 14:00:20;;;;;;;;;;;29.20;44.50;;;;;;5053754;28;19948;-73
2022/08/12 14:02:46;;;;;;;;;;;27.90;50.80;;;;;;5053167;28;19962;-75
2022/08/12 14:05:13;;;;;;;;;;;28.20;48.80;;;;;;5053495;28;19917;-74
2022/08/12 14:07:54;;;;;;;;;;;32.20;42.30;;;;;;5053841;28;19913;-74
2022/08/12 14:10:35;;;;;;;;;;;33.30;39.30;;;;;;5053774;28;19917;-74
2022/08/12 14:13:13;;;;;;;;;;;34.30;36.10;;;;;;5053351;28;19992;-74
2022/08/12 14:15:41;;;;;;;;;;;33.90;36.60;;;;;;5047947;28;19908;-74
2022/08/12 14:18:06;;;;;;;;;;;34.60;36.90;;;;;;5053742;28;19919;-74
2022/08/12 14:20:32;;;;;;;;;;;35.50;35.60;;;;;;5053567;28;19909;-74
2022/08/12 14:22:58;;;;;;;;;;;34.80;35.50;;;;;;5054818;28;19913;-74
2022/08/12 14:25:25;;;;;;;;;;;34.60;37.10;;;;;;5058481;28;20403;-74
2022/08/12 14:27:53;;;;;;;;;;;35.50;33.50;;;;;;5052083;28;20362;-74
2022/08/12 14:30:19;;;;;;;;;;;35.80;35.20;;;;;;5053016;28;19916;-74
2022/08/12 14:32:44;;;;;;;;;;;34.80;35.80;;;;;;5052854;28;19909;-73
2022/08/12 14:35:10;;;;;;;;;;;33.10;37.90;;;;;;5046197;28;19913;-74
2022/08/12 14:37:36;;;;;;;;;;;33.80;35.90;;;;;;5053154;28;19909;-74
2022/08/12 14:40:02;;;;;;;;;;;34.70;36.30;;;;;;5053703;28;20368;-74
2022/08/12 14:42:28;;;;;;;;;;;34.90;36.30;;;;;;5052956;28;19909;-74
2022/08/12 14:44:56;;;;;;;;;;;34.70;35.70;;;;;;5052732;28;20401;-73
2022/08/12 14:47:22;;;;;;;;;;;34.60;36.20;;;;;;5052912;28;19916;-74
2022/08/12 14:49:47;;;;;;;;;;;34.40;36.40;;;;;;5052975;28;20366;-74
2022/08/12 14:52:13;;;;;;;;;;;34.00;35.50;;;;;;5051377;28;19915;-73
2022/08/12 14:54:38;;;;;;;;;;;34.30;37.70;;;;;;5053384;28;19909;-73
2022/08/12 14:57:05;;;;;;;;;;;34.20;36.90;;;;;;5052898;28;19909;-73
2022/08/12 15:02:18;;;;;;;;;;;35.40;36.00;;;;;;5045890;28;19959;-74
2022/08/12 15:04:43;;;;;;;;;;;35.30;35.20;;;;;;5052022;28;20277;-73
2022/08/12 15:07:12;;;;;;;;;;;34.80;37.00;;;;;;5052749;28;19908;-73
2022/08/12 15:09:38;;;;;;;;;;;34.70;35.10;;;;;;5052442;28;20267;-74
2022/08/12 15:12:11;;;;;;;;;;;33.30;36.70;;;;;;5052316;28;20007;-73
2022/08/12 15:14:38;;;;;;;;;;;31.00;39.60;;;;;;5052277;28;19915;-73
2022/08/12 15:17:05;;;;;;;;;;;32.50;38.70;;;;;;5052352;28;20297;-73
2022/08/12 15:19:31;;;;;;;;;;;33.80;38.10;;;;;;5052493;28;20469;-73
2022/08/12 15:21:56;;;;;;;;;;;33.70;36.50;;;;;;5052056;28;19995;-73
2022/08/12 15:24:22;;;;;;;;;;;33.30;38.40;;;;;;5049376;28;19974;-73
2022/08/12 15:26:47;;;;;;;;;;;32.40;38.70;;;;;;5052635;28;20378;-73
2022/08/12 15:29:13;;;;;;;;;;;31.00;43.60;;;;;;5049255;28;19910;-73
2022/08/12 15:31:38;;;;;;;;;;;29.30;44.40;;;;;;5045374;28;19909;-73
2022/08/12 15:34:06;;;;;;;;;;;28.80;45.40;;;;;;5052033;28;20382;-73
2022/08/12 15:36:33;;;;;;;;;;;29.20;45.40;;;;;;5052456;28;19915;-73
2022/08/12 15:38:59;;;;;;;;;;;28.60;43.50;;;;;;5052209;28;19915;-73
2022/08/12 15:41:24;;;;;;;;;;;28.50;45.20;;;;;;5051788;28;19909;-73
2022/08/12 15:43:51;;;;;;;;;;;27.80;45.00;;;;;;5051504;28;19912;-73
2022/08/12 15:46:17;;;;;;;;;;;27.40;45.90;;;;;;5051877;28;19919;-73
2022/08/12 15:48:43;;;;;;;;;;;26.90;46.50;;;;;;5051849;28;19913;-73
2022/08/12 15:51:09;;;;;;;;;;;26.80;48.30;;;;;;5051493;28;19915;-73
2022/08/12 15:56:20;;;;;;;;;;;26.00;48.40;;;;;;5050822;28;19915;-73
2022/08/12 15:58:46;;;;;;;;;;;25.70;49.40;;;;;;5051916;28;19909;-73
2022/08/12 16:01:14;;;;;;;;;;;25.50;50.80;;;;;;5051709;28;19909;-73
2022/08/12 16:03:43;;;;;;;;;;;25.30;51.60;;;;;;5050908;28;19916;-73
2022/08/12 16:06:09;;;;;;;;;;;25.10;52.90;;;;;;5051662;28;19960;-73